Time;durP1;ratioP1;P1;durP2;ratioP2;P2;SDS_P1;SDS_P2;PMS_P1;PMS_P2;Temp;Humidity;BMP_temperature;BMP_pressure;BME280_temperature;BME280_humidity;BME280_pressure;Samples;Min_cycle;Max_cycle;Signal;HPM_P1;HPM_P2
2022/01/01 00:01:41;;;;;;;4.03;0.90;;;29.00;99.90;;;;;;5072505;28;20770;-71
2022/01/01 00:04:09;;;;;;;3.80;0.57;;;29.30;99.90;;;;;;5072735;28;20199;-73
2022/01/01 00:06:36;;;;;;;8.70;0.90;;;28.80;99.90;;;;;;5078593;28;20231;-72
2022/01/01 00:09:05;;;;;;;6.40;0.80;;;28.60;99.90;;;;;;5095646;28;20168;-71
2022/01/01 00:11:32;;;;;;;4.40;0.93;;;29.00;99.90;;;;;;5092936;28;20558;-72
2022/01/01 00:14:00;;;;;;;2.17;0.70;;;29.50;99.90;;;;;;5072470;28;20214;-73
2022/01/01 00:16:27;;;;;;;4.37;1.10;;;29.60;99.90;;;;;;5074118;28;20179;-72
2022/01/01 00:18:54;;;;;;;5.37;0.77;;;29.40;99.90;;;;;;5073264;28;20176;-72
2022/01/01 00:21:22;;;;;;;5.37;1.07;;;29.50;99.90;;;;;;5072738;28;20549;-71
2022/01/01 00:23:49;;;;;;;6.00;0.70;;;29.60;99.90;;;;;;5072959;28;20258;-73
2022/01/01 00:26:17;;;;;;;4.77;0.70;;;29.80;99.90;;;;;;5073035;28;20214;-72
2022/01/01 00:28:44;;;;;;;4.03;0.90;;;29.80;99.90;;;;;;5073256;28;20310;-73
2022/01/01 00:31:12;;;;;;;4.87;0.97;;;30.40;99.90;;;;;;5073184;28;20175;-73
2022/01/01 00:33:39;;;;;;;16.73;3.10;;;30.50;99.90;;;;;;5073432;28;20255;-73
2022/01/01 00:36:07;;;;;;;2.33;0.63;;;30.60;99.90;;;;;;5072839;28;20413;-72
2022/01/01 00:38:34;;;;;;;4.50;0.73;;;29.90;99.90;;;;;;5073040;28;20191;-72
2022/01/01 00:41:01;;;;;;;5.83;1.33;;;30.30;99.90;;;;;;5071640;28;20673;-72
2022/01/01 00:43:29;;;;;;;4.37;1.10;;;30.50;99.90;;;;;;5072935;28;20175;-72
2022/01/01 00:45:56;;;;;;;5.40;0.87;;;30.10;99.90;;;;;;5073048;28;20235;-72
2022/01/01 00:48:23;;;;;;;5.83;0.57;;;30.30;99.90;;;;;;5072837;28;20191;-71
2022/01/01 00:50:51;;;;;;;6.60;1.33;;;30.50;99.90;;;;;;5071706;28;20182;-71
2022/01/01 00:53:18;;;;;;;5.67;1.10;;;30.90;99.90;;;;;;5074786;28;20183;-71
2022/01/01 00:55:45;;;;;;;5.07;0.90;;;30.40;99.90;;;;;;5076148;28;20214;-72
2022/01/01 00:58:13;;;;;;;4.97;1.63;;;31.10;99.90;;;;;;5073882;28;20560;-73
2022/01/01 01:00:40;;;;;;;0.87;0.50;;;31.00;99.90;;;;;;5076921;28;20168;-73
2022/01/01 01:03:12;;;;;;;4.27;0.90;;;30.60;99.90;;;;;;5076714;28;20176;-73
2022/01/01 01:05:42;;;;;;;3.10;0.80;;;30.50;99.90;;;;;;5055635;28;20324;-73
2022/01/01 01:08:11;;;;;;;5.10;1.00;;;30.70;99.90;;;;;;5056792;28;20180;-72
2022/01/01 01:10:39;;;;;;;4.40;0.83;;;31.30;99.90;;;;;;5059427;28;20870;-74
2022/01/01 01:13:08;;;;;;;3.57;0.50;;;31.10;99.90;;;;;;5075971;28;20210;-73
2022/01/01 01:15:36;;;;;;;6.82;1.20;;;31.30;99.90;;;;;;5076659;28;20646;-71
2022/01/01 01:18:06;;;;;;;3.75;0.60;;;31.40;99.90;;;;;;5077950;28;20171;-75
2022/01/01 01:20:34;;;;;;;2.92;0.73;;;31.50;99.90;;;;;;5076317;28;20534;-72
2022/01/01 01:23:01;;;;;;;4.67;0.90;;;31.40;99.90;;;;;;5077380;28;20176;-73
2022/01/01 01:25:39;;;;;;;2.27;0.80;;;31.70;99.90;;;;;;5077360;28;20295;-73
2022/01/01 01:28:11;;;;;;;3.07;0.60;;;31.70;99.90;;;;;;5076350;28;20679;-72
2022/01/01 01:30:39;;;;;;;6.22;0.85;;;32.10;99.90;;;;;;5077284;28;20172;-72
2022/01/01 01:33:09;;;;;;;3.85;0.70;;;31.80;99.90;;;;;;5076807;28;20544;-72
2022/01/01 01:35:37;;;;;;;2.28;0.60;;;32.40;99.90;;;;;;5076182;28;20656;-71
2022/01/01 01:38:05;;;;;;;2.97;0.88;;;32.80;99.90;;;;;;5075789;28;20180;-72
2022/01/01 01:40:32;;;;;;;6.05;0.70;;;33.40;99.90;;;;;;5075417;28;20254;-73
2022/01/01 01:43:00;;;;;;;2.60;0.73;;;33.20;99.90;;;;;;5075957;28;20172;-72
2022/01/01 01:45:28;;;;;;;3.33;0.93;;;31.50;99.90;;;;;;5074840;28;20211;-70
2022/01/01 01:47:56;;;;;;;2.78;0.70;;;31.60;99.90;;;;;;5075316;28;20188;-70
2022/01/01 01:50:24;;;;;;;7.53;1.02;;;31.90;99.90;;;;;;5075682;28;20232;-72
2022/01/01 01:52:58;;;;;;;1.67;0.50;;;32.10;99.90;;;;;;5074946;28;20665;-73
2022/01/01 01:55:30;;;;;;;4.03;0.50;;;31.50;99.90;;;;;;5075301;28;20229;-70
2022/01/01 01:57:58;;;;;;;4.78;0.95;;;31.70;99.90;;;;;;5074053;28;20188;-70
2022/01/01 02:02:56;;;;;;;2.78;0.60;;;32.70;99.90;;;;;;5075021;28;20661;-70
2022/01/01 02:05:23;;;;;;;0.57;0.43;;;32.90;99.90;;;;;;5074967;28;20220;-71
2022/01/01 02:07:52;;;;;;;3.63;0.90;;;33.10;99.90;;;;;;5074533;28;20645;-71
2022/01/01 02:10:19;;;;;;;6.22;1.10;;;32.10;99.90;;;;;;5072964;28;20168;-71
2022/01/01 02:12:54;;;;;;;8.43;1.13;;;31.40;99.90;;;;;;5073025;28;20223;-71
2022/01/01 02:18:09;;;;;;;4.87;1.00;;;30.80;99.90;;;;;;5072877;28;20184;-71
2022/01/01 02:20:36;;;;;;;6.70;1.08;;;31.70;99.90;;;;;;5071596;28;20575;-72
2022/01/01 02:23:05;;;;;;;5.90;1.00;;;32.40;99.90;;;;;;5073662;28;20200;-71
2022/01/01 02:25:33;;;;;;;8.38;1.10;;;32.40;99.90;;;;;;5074906;28;20192;-71
2022/01/01 02:28:00;;;;;;;8.45;1.23;;;32.90;99.90;;;;;;5074927;28;20645;-72
2022/01/01 02:30:28;;;;;;;6.63;1.00;;;33.10;99.90;;;;;;5074879;28;20628;-72
2022/01/01 02:32:55;;;;;;;8.02;1.40;;;32.20;99.90;;;;;;5074675;28;20262;-71
2022/01/01 02:35:22;;;;;;;6.13;1.55;;;32.60;99.90;;;;;;5074538;28;20221;-72
2022/01/01 02:37:50;;;;;;;4.63;0.98;;;32.40;99.90;;;;;;5075110;28;20180;-72
2022/01/01 02:40:17;;;;;;;6.95;1.52;;;31.70;99.90;;;;;;5074508;28;20176;-72
2022/01/01 02:42:45;;;;;;;3.30;0.80;;;31.70;99.90;;;;;;5073121;28;20184;-71
2022/01/01 02:45:14;;;;;;;2.72;0.80;;;32.10;99.90;;;;;;5074472;28;20258;-71
2022/01/01 02:47:42;;;;;;;7.00;1.05;;;31.70;99.90;;;;;;5074371;28;20182;-71
2022/01/01 02:50:11;;;;;;;8.27;1.33;;;31.80;99.90;;;;;;5074085;28;20206;-72
2022/01/01 02:52:38;;;;;;;5.40;1.20;;;31.00;99.90;;;;;;5072948;28;20180;-71
2022/01/01 02:55:07;;;;;;;6.47;1.40;;;31.20;99.90;;;;;;5074143;28;20274;-72
2022/01/01 02:57:34;;;;;;;4.27;0.90;;;31.30;99.90;;;;;;5074064;28;20215;-72
2022/01/01 03:00:03;;;;;;;11.20;1.23;;;31.50;99.90;;;;;;5074097;28;20172;-72
2022/01/01 03:02:30;;;;;;;6.32;1.20;;;32.00;99.90;;;;;;5072608;28;20245;-71
2022/01/01 03:04:58;;;;;;;7.20;1.07;;;31.30;99.90;;;;;;5073816;28;20176;-71
2022/01/01 03:07:25;;;;;;;4.83;0.77;;;31.40;99.90;;;;;;5074036;28;20212;-72
2022/01/01 03:09:53;;;;;;;5.80;0.80;;;31.90;99.90;;;;;;5072123;28;20573;-72
2022/01/01 03:12:20;;;;;;;6.60;1.17;;;32.10;99.90;;;;;;5072587;28;20594;-71
2022/01/01 03:14:47;;;;;;;6.60;1.02;;;32.60;99.90;;;;;;5073283;28;20626;-71
2022/01/01 03:17:15;;;;;;;4.83;1.07;;;32.60;99.90;;;;;;5074018;28;20178;-71
2022/01/01 03:19:42;;;;;;;2.95;0.82;;;31.70;99.90;;;;;;5073789;28;20187;-71
2022/01/01 03:22:10;;;;;;;3.73;0.73;;;30.90;99.90;;;;;;5073849;28;20554;-72
2022/01/01 03:24:37;;;;;;;6.90;1.00;;;30.30;99.90;;;;;;5073416;28;20225;-71
2022/01/01 03:27:04;;;;;;;6.33;1.27;;;30.80;99.90;;;;;;5073822;28;20208;-71
2022/01/01 03:29:33;;;;;;;4.50;1.30;;;30.90;99.90;;;;;;5073800;28;20190;-72
2022/01/01 03:32:00;;;;;;;8.53;1.27;;;31.50;99.90;;;;;;5073943;28;20173;-71
2022/01/01 03:34:27;;;;;;;8.20;1.23;;;30.60;99.90;;;;;;5073638;28;20180;-71
2022/01/01 03:36:55;;;;;;;3.37;1.00;;;29.90;99.90;;;;;;5073733;28;20226;-71
2022/01/01 03:39:22;;;;;;;4.63;1.20;;;29.90;99.90;;;;;;5073786;28;20206;-71
2022/01/01 03:41:50;;;;;;;3.37;0.83;;;30.40;99.90;;;;;;5072442;28;20549;-71
2022/01/01 03:44:18;;;;;;;2.87;0.87;;;31.40;99.90;;;;;;5072182;28;20175;-71
2022/01/01 03:46:46;;;;;;;4.97;1.20;;;31.90;99.90;;;;;;5073769;28;20223;-71
2022/01/01 03:49:14;;;;;;;5.77;0.90;;;32.30;99.90;;;;;;5073845;28;20188;-72
2022/01/01 03:51:42;;;;;;;7.53;1.23;;;31.90;99.90;;;;;;5073747;28;20171;-70
2022/01/01 03:54:11;;;;;;;6.95;1.40;;;32.00;99.90;;;;;;5073718;28;20203;-71
2022/01/01 03:56:39;;;;;;;5.47;1.30;;;31.50;99.90;;;;;;5073851;28;20172;-71
2022/01/01 03:59:06;;;;;;;4.00;0.70;;;31.60;99.90;;;;;;5073084;28;20188;-71
2022/01/01 04:01:34;;;;;;;6.20;1.00;;;31.70;99.90;;;;;;5073627;28;20302;-71
2022/01/01 04:04:02;;;;;;;4.80;0.90;;;32.10;99.90;;;;;;5073506;28;20171;-71
2022/01/01 04:06:30;;;;;;;6.05;1.10;;;32.50;99.90;;;;;;5073112;28;20319;-72
2022/01/01 04:08:57;;;;;;;6.07;1.00;;;32.80;99.90;;;;;;5073376;28;20247;-71
2022/01/01 04:11:25;;;;;;;6.83;1.27;;;32.30;99.90;;;;;;5073388;28;20172;-72
2022/01/01 04:13:53;;;;;;;4.97;0.93;;;32.40;99.90;;;;;;5073356;28;20164;-72
2022/01/01 04:16:23;;;;;;;8.77;1.05;;;32.60;99.90;;;;;;5073653;28;20179;-72
2022/01/01 04:18:51;;;;;;;4.47;0.93;;;33.10;99.90;;;;;;5073559;28;20237;-71
2022/01/01 04:21:19;;;;;;;5.53;1.10;;;32.50;99.90;;;;;;5072059;28;20653;-72
2022/01/01 04:23:47;;;;;;;5.93;1.15;;;31.80;99.90;;;;;;5073702;28;20264;-72
2022/01/01 04:26:14;;;;;;;4.85;0.80;;;32.00;99.90;;;;;;5073425;28;20200;-71
2022/01/01 04:28:43;;;;;;;3.17;0.80;;;32.00;99.90;;;;;;5076778;28;20168;-72
2022/01/01 04:31:14;;;;;;;7.40;1.50;;;31.90;99.90;;;;;;5077118;28;20629;-70
2022/01/01 04:33:43;;;;;;;5.10;1.00;;;31.00;99.90;;;;;;5077150;28;20639;-72
2022/01/01 04:36:11;;;;;;;5.80;1.27;;;30.20;99.90;;;;;;5077235;28;20215;-72
2022/01/01 04:38:41;;;;;;;6.53;1.30;;;30.00;99.90;;;;;;5077682;28;20172;-71
2022/01/01 04:41:12;;;;;;;9.17;1.47;;;30.10;99.90;;;;;;5076187;28;20191;-71
2022/01/01 04:43:46;;;;;;;6.43;1.20;;;30.50;99.90;;;;;;5081469;28;20309;-71
2022/01/01 04:46:14;;;;;;;10.50;1.20;;;30.10;99.90;;;;;;5094757;28;20219;-70
2022/01/01 04:48:44;;;;;;;7.77;1.03;;;29.60;99.90;;;;;;5097375;28;20241;-71
2022/01/01 04:51:13;;;;;;;6.00;1.10;;;29.50;99.90;;;;;;5082158;28;20202;-71
2022/01/01 04:53:44;;;;;;;5.47;1.00;;;29.60;99.90;;;;;;5075900;28;20176;-71
2022/01/01 04:56:18;;;;;;;2.70;1.00;;;29.50;99.90;;;;;;5076600;28;20203;-69
2022/01/01 04:58:47;;;;;;;3.63;1.07;;;30.00;99.90;;;;;;5075740;28;20571;-70
2022/01/01 05:01:15;;;;;;;7.10;1.03;;;30.50;99.90;;;;;;5076903;28;20210;-70
2022/01/01 05:03:42;;;;;;;6.53;1.47;;;30.10;99.90;;;;;;5076951;28;20317;-71
2022/01/01 05:06:10;;;;;;;6.87;1.23;;;30.10;99.90;;;;;;5076627;28;20263;-71
2022/01/01 05:08:42;;;;;;;4.60;1.20;;;29.80;99.90;;;;;;5076691;28;20263;-71
2022/01/01 05:11:09;;;;;;;6.37;1.13;;;30.00;99.90;;;;;;5076875;28;20180;-71
2022/01/01 05:13:37;;;;;;;1.87;0.70;;;29.70;99.90;;;;;;5076608;28;20564;-71
2022/01/01 05:16:05;;;;;;;4.30;0.67;;;29.40;99.90;;;;;;5075585;28;20184;-72
2022/01/01 05:18:36;;;;;;;5.30;1.03;;;29.30;99.90;;;;;;5076714;28;20176;-71
2022/01/01 05:21:04;;;;;;;2.80;1.13;;;29.30;99.90;;;;;;5076521;28;20262;-71
2022/01/01 05:23:32;;;;;;;7.57;1.37;;;29.80;99.90;;;;;;5076427;28;20222;-72
2022/01/01 05:26:00;;;;;;;7.70;1.27;;;29.60;99.90;;;;;;5076451;28;20200;-71
2022/01/01 05:28:31;;;;;;;10.27;1.43;;;29.50;99.90;;;;;;5076425;28;20211;-72
2022/01/01 05:30:59;;;;;;;11.60;2.20;;;29.50;99.90;;;;;;5076262;28;20599;-72
2022/01/01 05:33:27;;;;;;;5.53;1.37;;;29.60;99.90;;;;;;5075102;28;20187;-72
2022/01/01 05:35:54;;;;;;;4.00;0.97;;;29.40;99.90;;;;;;5076810;28;20176;-72
2022/01/01 05:38:23;;;;;;;12.13;2.17;;;29.20;99.90;;;;;;5075954;28;20206;-72
2022/01/01 05:40:51;;;;;;;9.70;1.30;;;29.20;99.90;;;;;;5076263;28;20179;-72
2022/01/01 05:43:19;;;;;;;11.67;1.73;;;28.90;99.90;;;;;;5058702;28;20645;-72
2022/01/01 05:45:46;;;;;;;7.47;1.17;;;28.70;99.90;;;;;;5076391;28;20200;-71
2022/01/01 05:48:17;;;;;;;4.77;1.03;;;28.90;99.90;;;;;;5074765;28;20529;-72
2022/01/01 05:50:45;;;;;;;5.93;1.27;;;28.60;99.90;;;;;;5076312;28;20535;-72
2022/01/01 05:53:13;;;;;;;5.87;1.00;;;28.40;99.90;;;;;;5076060;28;20183;-72
2022/01/01 05:55:41;;;;;;;5.53;1.40;;;28.30;99.90;;;;;;5076365;28;20184;-71
2022/01/01 05:58:08;;;;;;;7.10;1.43;;;28.10;99.90;;;;;;5076202;28;20176;-72
2022/01/01 06:00:36;;;;;;;7.63;1.10;;;28.20;99.90;;;;;;5075850;28;20642;-72
2022/01/01 06:03:04;;;;;;;3.83;1.20;;;28.20;99.90;;;;;;5076018;28;20176;-72
2022/01/01 06:05:32;;;;;;;13.03;1.30;;;28.30;99.90;;;;;;5075620;28;20223;-71
2022/01/01 06:08:00;;;;;;;7.47;1.57;;;28.40;99.90;;;;;;5075785;28;20551;-72
2022/01/01 06:10:29;;;;;;;7.07;1.27;;;28.50;99.90;;;;;;5074412;28;20594;-72
2022/01/01 06:12:56;;;;;;;7.23;1.07;;;28.30;99.90;;;;;;5075859;28;20172;-73
2022/01/01 06:15:27;;;;;;;4.27;1.30;;;28.30;99.90;;;;;;5075688;28;20285;-70
2022/01/01 06:17:55;;;;;;;3.97;1.20;;;28.20;99.90;;;;;;5076060;28;20176;-73
2022/01/01 06:20:23;;;;;;;9.67;1.70;;;28.10;99.90;;;;;;5075977;28;20178;-72
2022/01/01 06:22:51;;;;;;;5.80;1.13;;;28.10;99.90;;;;;;5075217;28;20657;-72
2022/01/01 06:25:18;;;;;;;5.13;1.20;;;27.90;99.90;;;;;;5075146;28;20178;-72
2022/01/01 06:27:46;;;;;;;6.00;1.50;;;27.90;99.90;;;;;;5075468;28;20233;-73
2022/01/01 06:30:14;;;;;;;4.57;1.10;;;27.80;99.90;;;;;;5075135;28;20176;-73
2022/01/01 06:32:42;;;;;;;4.50;1.40;;;27.70;99.90;;;;;;5074212;28;20668;-72
2022/01/01 06:35:10;;;;;;;5.13;1.47;;;27.70;99.90;;;;;;5075141;28;20184;-72
2022/01/01 06:37:37;;;;;;;10.60;1.83;;;27.80;99.90;;;;;;5075357;28;20186;-73
2022/01/01 06:40:06;;;;;;;7.63;1.67;;;27.40;99.90;;;;;;5075337;28;20172;-73
2022/01/01 06:42:33;;;;;;;8.13;1.13;;;27.50;99.90;;;;;;5075101;28;20183;-72
2022/01/01 06:45:01;;;;;;;4.97;1.13;;;27.40;99.90;;;;;;5075102;28;20183;-72
2022/01/01 06:47:29;;;;;;;6.10;1.07;;;27.40;99.90;;;;;;5075019;28;20659;-73
2022/01/01 06:49:56;;;;;;;6.73;1.20;;;27.70;99.90;;;;;;5074352;28;20299;-73
2022/01/01 06:52:24;;;;;;;5.53;1.10;;;27.60;99.90;;;;;;5075222;28;20176;-71
2022/01/01 06:54:52;;;;;;;5.63;1.50;;;27.70;99.90;;;;;;5075264;28;20649;-72
2022/01/01 06:57:19;;;;;;;7.20;2.47;;;27.70;99.90;;;;;;5074619;28;20176;-70
2022/01/01 06:59:47;;;;;;;8.97;1.47;;;27.50;99.90;;;;;;5074608;28;20203;-71
2022/01/01 07:02:15;;;;;;;7.97;1.50;;;27.70;99.90;;;;;;5074545;28;20182;-71
2022/01/01 07:04:42;;;;;;;8.53;1.60;;;27.70;99.90;;;;;;5074395;28;20184;-71
2022/01/01 07:07:11;;;;;;;6.50;1.47;;;27.80;99.90;;;;;;5074375;28;20235;-71
2022/01/01 07:09:39;;;;;;;10.23;1.57;;;27.80;99.90;;;;;;5074388;28;20210;-72
2022/01/01 07:12:07;;;;;;;8.83;1.50;;;27.60;99.90;;;;;;5074316;28;20247;-71
2022/01/01 07:14:35;;;;;;;9.03;1.73;;;27.20;99.90;;;;;;5074251;28;20180;-72
2022/01/01 07:17:03;;;;;;;11.93;1.77;;;26.90;99.90;;;;;;5074309;28;20691;-72
2022/01/01 07:19:30;;;;;;;9.07;2.33;;;26.90;99.90;;;;;;5074213;28;20183;-72
2022/01/01 07:22:00;;;;;;;10.73;2.07;;;27.00;99.90;;;;;;5073049;28;20237;-71
2022/01/01 07:24:28;;;;;;;5.53;1.30;;;27.10;99.90;;;;;;5072727;28;20641;-70
2022/01/01 07:26:55;;;;;;;6.80;1.67;;;26.90;99.90;;;;;;5074120;28;20211;-71
2022/01/01 07:29:23;;;;;;;7.57;1.53;;;26.70;99.90;;;;;;5073893;28;20637;-71
2022/01/01 07:31:54;;;;;;;5.87;1.40;;;26.60;99.90;;;;;;5074073;28;20179;-72
2022/01/01 07:34:22;;;;;;;11.63;1.60;;;26.70;99.90;;;;;;5074086;28;20175;-71
2022/01/01 07:36:50;;;;;;;8.50;1.60;;;26.40;99.90;;;;;;5073967;28;20645;-71
2022/01/01 07:39:18;;;;;;;6.93;1.53;;;26.60;99.90;;;;;;5073963;28;20736;-72
2022/01/01 07:41:47;;;;;;;12.23;1.87;;;26.80;99.90;;;;;;5073687;28;20183;-72
2022/01/01 07:44:15;;;;;;;9.23;1.77;;;26.80;99.90;;;;;;5073604;28;20194;-71
2022/01/01 07:46:42;;;;;;;9.13;1.67;;;26.50;99.90;;;;;;5073923;28;20212;-70
2022/01/01 07:49:10;;;;;;;9.03;1.83;;;26.50;99.90;;;;;;5073841;28;20172;-70
2022/01/01 07:51:38;;;;;;;12.10;2.07;;;26.70;99.90;;;;;;5073532;28;20172;-70
2022/01/01 07:54:05;;;;;;;8.17;1.40;;;27.00;99.90;;;;;;5073616;28;20743;-71
2022/01/01 07:56:33;;;;;;;4.30;1.13;;;27.00;99.90;;;;;;5073917;28;20164;-70
2022/01/01 07:59:01;;;;;;;6.70;1.67;;;27.20;99.90;;;;;;5073461;28;20234;-71
2022/01/01 08:01:28;;;;;;;8.43;1.70;;;27.20;99.90;;;;;;5073270;28;20179;-72
2022/01/01 08:04:01;;;;;;;11.30;2.20;;;27.00;99.90;;;;;;5073583;28;20172;-72
2022/01/01 08:06:31;;;;;;;8.20;2.00;;;27.30;99.90;;;;;;5073048;28;20240;-72
2022/01/01 08:08:59;;;;;;;3.87;1.40;;;27.20;99.90;;;;;;5073507;28;20172;-71
2022/01/01 08:11:26;;;;;;;7.83;2.00;;;27.10;99.90;;;;;;5073361;28;20216;-72
2022/01/01 08:13:55;;;;;;;8.53;1.83;;;27.10;99.90;;;;;;5073724;28;20229;-72
2022/01/01 08:16:22;;;;;;;8.70;1.87;;;27.10;99.90;;;;;;5072073;28;20653;-71
2022/01/01 08:18:50;;;;;;;5.43;1.57;;;27.20;99.90;;;;;;5073377;28;20180;-71
2022/01/01 08:21:18;;;;;;;9.53;1.30;;;27.20;99.90;;;;;;5073539;28;20172;-71
2022/01/01 08:23:46;;;;;;;7.57;1.37;;;27.00;99.90;;;;;;5073340;28;20179;-70
2022/01/01 08:26:17;;;;;;;9.60;1.40;;;27.00;99.90;;;;;;5072007;28;20316;-71
2022/01/01 08:28:45;;;;;;;10.00;1.80;;;26.80;99.90;;;;;;5073697;28;20262;-70
2022/01/01 08:31:12;;;;;;;7.37;1.50;;;26.40;99.90;;;;;;5073182;28;20183;-71
2022/01/01 08:33:40;;;;;;;10.63;1.57;;;26.20;99.90;;;;;;5073167;28;20207;-71
2022/01/01 08:36:14;;;;;;;8.30;1.57;;;26.10;99.90;;;;;;5073500;28;20176;-69
2022/01/01 08:38:42;;;;;;;10.90;1.83;;;25.90;99.90;;;;;;5073273;28;20245;-72
2022/01/01 08:41:09;;;;;;;13.07;1.60;;;25.80;99.90;;;;;;5072951;28;20183;-72
2022/01/01 08:43:38;;;;;;;16.67;2.20;;;25.70;99.90;;;;;;5073121;28;20172;-70
2022/01/01 08:46:07;;;;;;;4.70;1.00;;;25.60;99.90;;;;;;5072800;28;20239;-73
2022/01/01 08:48:35;;;;;;;9.07;1.40;;;25.60;99.90;;;;;;5071613;28;20183;-71
2022/01/01 08:51:23;;;;;;;9.30;1.50;;;25.50;99.90;;;;;;5072824;28;20182;-73
2022/01/01 08:53:51;;;;;;;11.13;1.63;;;25.60;99.90;;;;;;5072662;28;20206;-71
2022/01/01 08:56:19;;;;;;;15.13;2.27;;;25.70;99.90;;;;;;5072750;28;20222;-71
2022/01/01 08:58:47;;;;;;;9.80;2.13;;;25.70;99.90;;;;;;5072941;28;20183;-71
2022/01/01 09:01:15;;;;;;;6.27;1.40;;;25.50;99.90;;;;;;5072857;28;20218;-72
2022/01/01 09:03:43;;;;;;;11.10;1.80;;;25.50;99.90;;;;;;5073311;28;20183;-72
2022/01/01 09:06:11;;;;;;;8.83;1.80;;;25.40;99.90;;;;;;5072396;28;20342;-71
2022/01/01 09:08:42;;;;;;;4.40;1.30;;;25.40;99.90;;;;;;5072473;28;20230;-71
2022/01/01 09:11:12;;;;;;;10.90;1.97;;;25.20;99.90;;;;;;5072774;28;20214;-72
2022/01/01 09:13:42;;;;;;;8.67;1.70;;;25.20;99.90;;;;;;5073965;28;20187;-73
2022/01/01 09:16:13;;;;;;;9.10;1.90;;;25.20;99.90;;;;;;5085673;28;20209;-72
2022/01/01 09:18:42;;;;;;;6.63;1.10;;;25.10;99.90;;;;;;5100720;28;20205;-72
2022/01/01 09:21:11;;;;;;;5.37;1.73;;;25.10;99.90;;;;;;5093948;28;20202;-70
2022/01/01 09:23:40;;;;;;;11.20;1.87;;;25.00;99.90;;;;;;5077930;28;20652;-72
2022/01/01 09:26:08;;;;;;;13.07;2.47;;;25.00;99.90;;;;;;5077215;28;20243;-71
2022/01/01 09:28:36;;;;;;;12.93;2.73;;;24.90;99.90;;;;;;5075268;28;20584;-71
2022/01/01 09:31:04;;;;;;;7.60;1.97;;;24.80;99.90;;;;;;5076304;28;20265;-71
2022/01/01 09:33:33;;;;;;;9.03;2.07;;;24.80;99.90;;;;;;5075903;28;20175;-70
2022/01/01 09:36:03;;;;;;;13.70;2.20;;;24.70;99.90;;;;;;5075945;28;20675;-71
2022/01/01 09:38:32;;;;;;;8.73;1.97;;;24.70;99.90;;;;;;5076000;28;20229;-71
2022/01/01 09:41:04;;;;;;;9.37;1.83;;;24.60;99.90;;;;;;5075775;28;20172;-70
2022/01/01 09:43:33;;;;;;;7.43;1.90;;;24.60;99.90;;;;;;5075867;28;20172;-70
2022/01/01 09:46:02;;;;;;;9.60;1.87;;;24.60;99.90;;;;;;5075613;28;20211;-71
2022/01/01 09:48:31;;;;;;;9.63;2.00;;;24.60;99.90;;;;;;5075952;28;20275;-72
2022/01/01 09:51:03;;;;;;;8.93;2.03;;;24.50;99.90;;;;;;5075723;28;20630;-72
2022/01/01 09:53:32;;;;;;;9.83;2.03;;;24.40;99.90;;;;;;5075669;28;20270;-71
2022/01/01 09:56:02;;;;;;;9.53;2.27;;;24.40;99.90;;;;;;5075882;28;20184;-71
2022/01/01 09:58:32;;;;;;;11.60;3.27;;;24.40;99.90;;;;;;5075598;28;20546;-70
2022/01/01 10:01:02;;;;;;;9.67;1.70;;;24.30;99.90;;;;;;5075447;28;20175;-70
2022/01/01 10:03:42;;;;;;;9.53;2.00;;;24.30;99.90;;;;;;5074242;28;20186;-71
2022/01/01 10:06:15;;;;;;;8.17;2.03;;;24.30;99.90;;;;;;5075192;28;20227;-71
2022/01/01 10:08:47;;;;;;;5.23;1.57;;;24.30;99.90;;;;;;5074288;28;20663;-71
2022/01/01 10:11:19;;;;;;;9.67;2.00;;;24.20;99.90;;;;;;5075376;28;20179;-72
2022/01/01 10:13:47;;;;;;;16.27;1.80;;;24.20;99.90;;;;;;5075337;28;20187;-71
2022/01/01 10:16:17;;;;;;;8.43;2.00;;;24.20;99.90;;;;;;5075388;28;20652;-71
2022/01/01 10:18:51;;;;;;;8.70;1.87;;;24.20;99.90;;;;;;5075422;28;20258;-69
2022/01/01 10:21:26;;;;;;;9.37;1.73;;;24.10;99.90;;;;;;5075176;28;20183;-71
2022/01/01 10:23:58;;;;;;;9.63;2.03;;;24.10;99.90;;;;;;5075139;28;20670;-71
2022/01/01 10:29:26;;;;;;;11.03;2.00;;;24.00;99.90;;;;;;5075176;28;20239;-71
2022/01/01 10:32:01;;;;;;;11.77;2.80;;;24.00;99.90;;;;;;5075012;28;20697;-71
2022/01/01 10:34:51;;;;;;;11.80;2.27;;;23.90;99.90;;;;;;5075267;28;20168;-70
2022/01/01 10:37:28;;;;;;;13.77;2.20;;;23.90;99.90;;;;;;5074901;28;20539;-71
2022/01/01 10:39:58;;;;;;;9.70;2.30;;;24.00;99.90;;;;;;5075245;28;20186;-72
2022/01/01 10:42:26;;;;;;;10.03;1.97;;;23.90;99.90;;;;;;5073357;28;20228;-72
2022/01/01 10:44:54;;;;;;;11.27;2.20;;;23.90;99.90;;;;;;5074718;28;20204;-71
2022/01/01 10:47:31;;;;;;;7.97;2.40;;;23.90;99.90;;;;;;5074461;28;20642;-72
2022/01/01 10:52:32;;;;;;;15.57;2.57;;;23.90;99.90;;;;;;5074757;28;20180;-71
2022/01/01 10:55:03;;;;;;;12.23;1.70;;;23.90;99.90;;;;;;5073228;28;20184;-71
2022/01/01 10:57:39;;;;;;;10.73;1.97;;;23.80;99.90;;;;;;5074551;28;20176;-70
2022/01/01 11:00:20;;;;;;;12.03;2.17;;;23.80;99.90;;;;;;5073105;28;20240;-71
2022/01/01 11:02:56;;;;;;;10.27;1.97;;;23.80;99.90;;;;;;5074581;28;20214;-72
2022/01/01 11:05:32;;;;;;;10.20;2.10;;;23.70;99.90;;;;;;5074143;28;20222;-71
2022/01/01 11:08:01;;;;;;;12.53;1.67;;;23.60;99.90;;;;;;5073037;28;20194;-71
2022/01/01 11:10:29;;;;;;;9.83;2.10;;;23.60;99.90;;;;;;5074014;28;20660;-72
2022/01/01 11:12:59;;;;;;;12.87;2.17;;;23.50;99.90;;;;;;5073918;28;20184;-71
2022/01/01 11:15:28;;;;;;;8.90;2.07;;;23.50;99.90;;;;;;5074062;28;20175;-72
2022/01/01 11:17:57;;;;;;;10.33;2.30;;;23.50;99.90;;;;;;5073899;28;20206;-72
2022/01/01 11:20:26;;;;;;;11.47;2.30;;;23.50;99.90;;;;;;5074232;28;20608;-72
2022/01/01 11:22:57;;;;;;;16.13;2.50;;;23.50;99.90;;;;;;5073748;28;20264;-71
2022/01/01 11:25:26;;;;;;;13.43;2.00;;;23.50;99.90;;;;;;5074190;28;20179;-71
2022/01/01 11:27:57;;;;;;;14.10;3.23;;;23.40;99.90;;;;;;5074182;28;20264;-71
2022/01/01 11:30:30;;;;;;;13.50;2.07;;;23.40;99.90;;;;;;5073685;28;20530;-72
2022/01/01 11:33:13;;;;;;;11.77;1.97;;;23.40;99.90;;;;;;5074064;28;20171;-74
2022/01/01 11:36:00;;;;;;;9.37;2.30;;;23.30;99.90;;;;;;5074043;28;20173;-70
2022/01/01 11:38:31;;;;;;;9.90;2.53;;;23.20;99.90;;;;;;5073879;28;20177;-71
2022/01/01 11:41:11;;;;;;;15.57;2.60;;;23.20;99.90;;;;;;5073670;28;20174;-71
2022/01/01 11:43:55;;;;;;;11.20;2.60;;;23.10;99.90;;;;;;5073606;28;20168;-71
2022/01/01 11:46:24;;;;;;;9.13;2.33;;;23.10;99.90;;;;;;5073602;28;20203;-72
2022/01/01 11:49:03;;;;;;;15.47;2.60;;;23.00;99.90;;;;;;5073145;28;20519;-72
2022/01/01 11:51:43;;;;;;;10.83;2.33;;;22.90;99.90;;;;;;5073599;28;20174;-71
2022/01/01 11:54:19;;;;;;;14.97;2.63;;;22.80;99.90;;;;;;5072379;28;20183;-71
2022/01/01 11:56:50;;;;;;;16.07;2.60;;;22.80;99.90;;;;;;5072237;28;20228;-70
2022/01/01 11:59:28;;;;;;;8.57;1.80;;;22.70;99.90;;;;;;5073666;28;20221;-70
2022/01/01 12:02:15;;;;;;;8.30;2.63;;;22.70;99.90;;;;;;5072052;28;20244;-71
2022/01/01 12:04:44;;;;;;;11.53;3.30;;;22.70;99.90;;;;;;5071970;28;20190;-70
2022/01/01 12:07:13;;;;;;;9.03;2.40;;;22.60;99.90;;;;;;5072052;28;20306;-70
2022/01/01 12:09:58;;;;;;;14.53;2.47;;;22.50;99.90;;;;;;5072885;28;20179;-70
2022/01/01 12:12:50;;;;;;;9.50;2.40;;;22.50;99.90;;;;;;5073056;28;20651;-71
2022/01/01 12:15:24;;;;;;;7.87;2.10;;;22.40;99.90;;;;;;5053560;28;20207;-70
2022/01/01 12:18:13;;;;;;;11.07;2.10;;;22.40;99.90;;;;;;5053088;28;20206;-70
2022/01/01 12:20:45;;;;;;;9.73;2.60;;;22.30;99.90;;;;;;5059418;28;20179;-70
2022/01/01 12:23:19;;;;;;;12.27;2.40;;;22.30;99.90;;;;;;5071151;28;20191;-71
2022/01/01 12:25:49;;;;;;;13.73;2.50;;;22.20;99.90;;;;;;5071782;28;20183;-71
2022/01/01 12:28:19;;;;;;;13.97;2.50;;;22.20;99.90;;;;;;5071497;28;20185;-70
2022/01/01 12:30:52;;;;;;;15.30;2.40;;;22.20;99.90;;;;;;5070810;28;20184;-69
2022/01/01 12:33:27;;;;;;;11.20;2.37;;;22.10;99.90;;;;;;5072251;28;20187;-70
2022/01/01 12:35:57;;;;;;;8.77;2.13;;;22.00;99.90;;;;;;5072708;28;20223;-70
2022/01/01 12:38:30;;;;;;;14.27;2.73;;;22.00;99.90;;;;;;5073211;28;20198;-71
2022/01/01 12:41:44;;;;;;;9.03;2.10;;;22.00;99.90;;;;;;5072486;28;20669;-71
2022/01/01 12:44:31;;;;;;;11.40;2.43;;;21.90;99.90;;;;;;5068108;28;20533;-72
2022/01/01 12:47:01;;;;;;;10.23;2.97;;;21.80;99.90;;;;;;5071616;28;20208;-70
2022/01/01 12:49:32;;;;;;;12.40;2.70;;;21.80;99.90;;;;;;5072105;28;20173;-70
2022/01/01 12:52:01;;;;;;;11.67;2.63;;;21.80;99.90;;;;;;5076000;28;20328;-71
2022/01/01 12:54:29;;;;;;;19.07;2.97;;;21.70;99.90;;;;;;5073577;28;20176;-70
2022/01/01 12:56:59;;;;;;;8.73;2.20;;;21.70;99.90;;;;;;5076372;28;20267;-72
2022/01/01 12:59:27;;;;;;;10.93;2.23;;;21.70;99.90;;;;;;5076813;28;20213;-72
2022/01/01 13:02:03;;;;;;;14.57;2.53;;;21.60;99.90;;;;;;5076115;28;20193;-70
2022/01/01 13:04:31;;;;;;;12.13;2.00;;;21.60;99.90;;;;;;5076782;28;20179;-72
2022/01/01 13:06:59;;;;;;;10.13;2.47;;;21.50;99.90;;;;;;5076356;28;20316;-71
2022/01/01 13:09:28;;;;;;;14.60;2.50;;;21.50;99.90;;;;;;5076081;28;20198;-71